createdAt,value
2017-09-16T00:01:01.585Z,11.80
2017-09-16T00:03:30.521Z,11.80
2017-09-16T00:05:58.685Z,11.80
2017-09-16T00:08:26.820Z,11.70
2017-09-16T00:10:55.886Z,11.60
2017-09-16T00:13:24.021Z,11.60
2017-09-16T00:15:52.156Z,11.50
2017-09-16T00:18:20.321Z,11.60
2017-09-16T00:20:48.460Z,11.50
2017-09-16T00:23:16.645Z,11.50
2017-09-16T00:25:44.781Z,11.50
2017-09-16T00:28:12.913Z,11.50
2017-09-16T00:30:41.189Z,11.50
2017-09-16T00:33:09.329Z,11.40
2017-09-16T00:35:37.513Z,11.30
2017-09-16T00:38:05.652Z,11.20
2017-09-16T00:40:33.792Z,11.20
2017-09-16T00:43:02.728Z,11.30
2017-09-16T00:45:30.860Z,11.30
2017-09-16T00:47:59.918Z,11.30
2017-09-16T00:50:28.050Z,11.20
2017-09-16T00:52:56.228Z,11.20
2017-09-16T00:55:24.360Z,11.10
2017-09-16T00:57:52.509Z,11.00
2017-09-16T01:00:20.685Z,11.00
2017-09-16T01:02:48.820Z,10.90
2017-09-16T01:05:16.961Z,10.90
2017-09-16T01:07:45.240Z,10.90
2017-09-16T01:10:13.389Z,10.90
2017-09-16T01:12:41.581Z,10.90
2017-09-16T01:15:09.721Z,10.80
2017-09-16T01:17:37.884Z,10.80
2017-09-16T01:20:06.029Z,10.80
2017-09-16T01:22:34.172Z,10.80
2017-09-16T01:25:02.445Z,10.80
2017-09-16T01:27:30.589Z,10.70
2017-09-16T01:30:00.048Z,10.70
2017-09-16T01:32:28.950Z,10.80
2017-09-16T01:34:57.109Z,10.70
2017-09-16T01:37:26.024Z,10.70
2017-09-16T01:39:54.165Z,10.70
2017-09-16T01:42:23.212Z,10.60
2017-09-16T01:44:51.354Z,10.60
2017-09-16T01:47:19.488Z,10.60
2017-09-16T01:49:47.657Z,10.60
2017-09-16T01:52:15.808Z,10.60
2017-09-16T01:54:43.969Z,10.60
2017-09-16T01:57:12.101Z,10.60
2017-09-16T01:59:41.157Z,10.60
2017-09-16T02:02:09.306Z,10.60
2017-09-16T02:04:37.441Z,10.60
2017-09-16T02:07:06.397Z,10.50
2017-09-16T02:09:34.549Z,10.50
2017-09-16T02:12:02.724Z,10.50
2017-09-16T02:14:30.861Z,10.40
2017-09-16T02:16:59.759Z,10.50
2017-09-16T02:19:27.923Z,10.50
2017-09-16T02:21:56.820Z,10.40
2017-09-16T02:24:24.994Z,10.40
2017-09-16T02:26:53.916Z,10.40
2017-09-16T02:29:22.075Z,10.40
2017-09-16T02:31:50.217Z,10.30
2017-09-16T02:34:19.141Z,10.30
2017-09-16T02:36:47.316Z,10.30
2017-09-16T02:39:15.467Z,10.40
2017-09-16T02:41:43.751Z,10.40
2017-09-16T02:44:11.889Z,10.40
2017-09-16T02:46:40.050Z,10.40
2017-09-16T02:49:08.185Z,10.30
2017-09-16T02:51:36.341Z,10.20
2017-09-16T02:54:04.481Z,10.20
2017-09-16T02:56:32.760Z,10.20
2017-09-16T02:59:00.921Z,10.10
2017-09-16T03:01:29.060Z,10.10
2017-09-16T03:03:57.234Z,10.00
2017-09-16T03:06:25.373Z,10.00
2017-09-16T03:08:53.658Z,10.00
2017-09-16T03:11:21.785Z,10.00
2017-09-16T03:13:49.926Z,10.00
2017-09-16T03:16:18.081Z,10.10
2017-09-16T03:18:46.221Z,10.00
2017-09-16T03:21:14.378Z,9.90
2017-09-16T03:23:42.505Z,10.00
2017-09-16T03:26:10.635Z,10.00
2017-09-16T03:28:38.913Z,9.90
2017-09-16T03:31:07.038Z,9.90
2017-09-16T03:33:35.201Z,9.90
2017-09-16T03:36:03.323Z,9.90
2017-09-16T03:38:31.500Z,9.90
2017-09-16T03:41:00.422Z,9.80
2017-09-16T03:43:28.536Z,9.80
2017-09-16T03:45:56.700Z,9.80
2017-09-16T03:48:25.603Z,9.70
2017-09-16T03:50:53.865Z,9.70
2017-09-16T03:53:22.760Z,9.60
2017-09-16T03:55:50.929Z,9.60
2017-09-16T03:58:19.053Z,9.60
2017-09-16T04:00:47.207Z,9.60
2017-09-16T04:03:15.337Z,9.50
2017-09-16T04:05:43.492Z,9.50
2017-09-16T04:08:12.528Z,9.40
2017-09-16T04:10:40.660Z,9.40
2017-09-16T04:13:09.588Z,9.40
2017-09-16T04:15:37.736Z,9.40
2017-09-16T04:18:05.852Z,9.40
2017-09-16T04:20:34.035Z,9.40
2017-09-16T04:23:02.168Z,9.40
2017-09-16T04:25:30.322Z,9.30
2017-09-16T04:27:58.555Z,9.30
2017-09-16T04:30:26.686Z,9.20
2017-09-16T04:32:54.846Z,9.30
2017-09-16T04:35:23.013Z,9.40
2017-09-16T04:37:51.934Z,9.30
2017-09-16T04:40:20.057Z,9.30
2017-09-16T04:42:48.249Z,9.30
2017-09-16T04:45:17.149Z,9.30
2017-09-16T04:47:45.309Z,9.20
2017-09-16T04:50:14.221Z,9.30
2017-09-16T04:52:42.344Z,9.30
2017-09-16T04:55:10.601Z,9.30
2017-09-16T04:57:38.744Z,9.30
2017-09-16T05:00:06.916Z,9.30
2017-09-16T05:02:35.053Z,9.20
2017-09-16T05:05:03.208Z,9.20
2017-09-16T05:07:31.352Z,9.20
2017-09-16T05:09:59.488Z,9.20
2017-09-16T05:12:28.431Z,9.10
2017-09-16T05:14:57.347Z,9.10
2017-09-16T05:17:25.493Z,9.10
2017-09-16T05:19:53.620Z,9.10
2017-09-16T05:22:22.541Z,9.10
2017-09-16T05:24:50.698Z,9.10
2017-09-16T05:27:18.829Z,9.10
2017-09-16T05:29:47.020Z,9.10
2017-09-16T05:32:15.914Z,9.10
2017-09-16T05:34:44.840Z,9.10
2017-09-16T05:37:12.969Z,9.10
2017-09-16T05:39:41.105Z,9.20
2017-09-16T05:42:09.282Z,9.20
2017-09-16T05:44:37.422Z,9.20
2017-09-16T05:47:06.845Z,9.30
2017-09-16T05:49:34.988Z,9.40
2017-09-16T05:52:03.130Z,9.40
2017-09-16T05:54:31.290Z,9.30
2017-09-16T05:57:00.601Z,9.30
2017-09-16T05:59:28.768Z,9.40
2017-09-16T06:01:56.908Z,9.50
2017-09-16T06:04:25.062Z,9.50
2017-09-16T06:06:53.324Z,9.50
2017-09-16T06:09:21.452Z,9.60
2017-09-16T13:57:45.157Z,16.00
2017-09-16T14:00:13.341Z,15.90
2017-09-16T14:02:41.550Z,15.80
2017-09-16T14:05:09.749Z,15.60
2017-09-16T14:07:38.650Z,15.60
2017-09-16T14:10:06.821Z,15.60
2017-09-16T14:12:34.966Z,15.60
2017-09-16T14:15:03.917Z,15.60
2017-09-16T14:17:33.388Z,15.60
2017-09-16T14:20:02.694Z,15.60
2017-09-16T14:22:30.864Z,15.60
2017-09-16T14:24:59.020Z,15.50
2017-09-16T14:27:28.657Z,15.40
2017-09-16T14:29:56.902Z,15.10
2017-09-16T14:32:25.864Z,14.60
2017-09-16T14:34:53.994Z,14.60
2017-09-16T14:37:22.321Z,14.30
2017-09-16T14:39:50.465Z,14.10
2017-09-16T14:42:18.620Z,14.00
2017-09-16T14:44:46.806Z,13.90
2017-09-16T14:47:14.973Z,13.70
2017-09-16T14:49:43.156Z,13.80
2017-09-16T14:52:11.335Z,13.90
2017-09-16T14:54:39.902Z,13.90
2017-09-16T14:57:08.889Z,14.00
2017-09-16T14:59:37.679Z,14.00
2017-09-16T15:02:08.326Z,14.00
2017-09-16T15:04:37.063Z,14.10
2017-09-16T15:07:07.297Z,14.20
2017-09-16T15:09:37.614Z,14.20
2017-09-16T15:12:07.938Z,14.20
2017-09-16T15:14:37.009Z,14.10
2017-09-16T15:17:08.769Z,14.20
2017-09-16T15:19:39.758Z,14.10
2017-09-16T15:22:11.325Z,14.10
2017-09-16T15:24:42.146Z,14.10
2017-09-16T15:27:13.145Z,13.90
2017-09-16T15:29:44.434Z,13.90
2017-09-16T15:32:15.218Z,13.90
2017-09-16T15:34:45.800Z,13.90
2017-09-16T15:37:16.100Z,13.80
2017-09-16T15:39:46.200Z,13.90
2017-09-16T15:42:16.398Z,13.90
2017-09-16T15:44:45.398Z,13.90
2017-09-16T15:47:14.707Z,14.00
2017-09-16T15:49:43.913Z,13.90
2017-09-16T15:52:13.356Z,13.90
2017-09-16T15:54:41.970Z,13.90
2017-09-16T15:57:10.469Z,14.00
2017-09-16T15:59:50.257Z,14.00
2017-09-16T16:02:19.255Z,14.00
2017-09-16T16:05:03.838Z,14.00
2017-09-16T16:07:38.202Z,14.00
2017-09-16T16:10:12.573Z,14.00
2017-09-16T16:12:40.994Z,14.00
2017-09-16T16:15:11.782Z,14.00
2017-09-16T16:17:43.182Z,14.00
2017-09-16T16:20:13.564Z,14.10
2017-09-16T16:22:42.809Z,14.00
2017-09-16T16:25:13.131Z,14.10
2017-09-16T16:27:42.570Z,14.10
2017-09-16T16:30:11.398Z,14.10
2017-09-16T16:32:43.434Z,13.80
2017-09-16T16:35:14.863Z,13.60
2017-09-16T16:37:44.548Z,13.60
2017-09-16T16:40:12.783Z,13.50
2017-09-16T16:42:41.586Z,13.40
2017-09-16T16:45:11.055Z,13.40
2017-09-16T16:47:40.194Z,13.40
2017-09-16T16:50:09.667Z,13.40
2017-09-16T16:52:38.413Z,13.40
2017-09-16T16:55:07.170Z,13.30
2017-09-16T16:57:35.347Z,13.20
2017-09-16T17:00:03.504Z,13.20
2017-09-16T17:02:31.662Z,13.20
2017-09-16T17:04:59.847Z,13.00
2017-09-16T17:07:27.997Z,12.90
2017-09-16T17:09:56.189Z,12.90
2017-09-16T17:12:24.356Z,12.80
2017-09-16T17:14:52.526Z,12.80
2017-09-16T17:17:20.696Z,12.80
2017-09-16T17:19:55.067Z,12.80
2017-09-16T17:22:24.037Z,12.80
2017-09-16T17:24:57.818Z,12.80
2017-09-16T17:27:27.368Z,12.90
2017-09-16T17:29:56.557Z,12.90
2017-09-16T17:32:29.927Z,12.90
2017-09-16T17:35:03.880Z,13.00
2017-09-16T17:37:36.768Z,13.00
2017-09-16T17:40:06.990Z,13.00
2017-09-16T17:42:39.690Z,13.00
2017-09-16T17:45:21.602Z,13.00
2017-09-16T17:47:49.805Z,13.00
2017-09-16T17:50:17.998Z,13.00
2017-09-16T17:53:12.612Z,13.00
2017-09-16T17:55:46.532Z,13.00
2017-09-16T17:58:23.268Z,13.00
2017-09-16T18:00:53.169Z,12.90
2017-09-16T18:03:21.650Z,13.00
2017-09-16T18:05:55.517Z,13.10
2017-09-16T18:08:23.919Z,13.10
2017-09-16T18:10:55.716Z,13.20
2017-09-16T18:13:25.749Z,13.20
2017-09-16T18:15:54.388Z,13.20
2017-09-16T18:18:24.312Z,13.20
2017-09-16T18:20:52.577Z,13.20
2017-09-16T18:23:23.997Z,13.20
2017-09-16T18:25:57.536Z,13.20
2017-09-16T18:28:31.717Z,13.20
2017-09-16T18:31:03.645Z,13.10
2017-09-16T18:33:32.691Z,13.20
2017-09-16T18:36:00.877Z,13.10
2017-09-16T18:38:34.175Z,13.10
2017-09-16T18:41:08.655Z,13.10
2017-09-16T18:43:38.485Z,13.10
2017-09-16T18:46:12.768Z,13.10
2017-09-16T18:48:50.026Z,13.10
2017-09-16T18:51:18.345Z,13.10
2017-09-16T18:53:46.504Z,13.10
2017-09-16T18:56:32.361Z,13.00
2017-09-16T18:59:04.174Z,13.00
2017-09-16T19:01:37.337Z,13.10
2017-09-16T19:04:10.180Z,13.10
2017-09-16T19:06:39.306Z,13.10
2017-09-16T19:09:12.955Z,13.00
2017-09-16T19:11:44.782Z,13.00
2017-09-16T19:14:14.534Z,12.90
2017-09-16T19:16:48.338Z,12.90
2017-09-16T19:19:19.492Z,12.90
2017-09-16T19:21:55.413Z,13.00
2017-09-16T19:24:28.325Z,12.90
2017-09-16T19:26:57.337Z,13.00
2017-09-16T19:29:28.544Z,13.00
2017-09-16T19:32:00.989Z,13.00
2017-09-16T19:34:31.640Z,13.00
2017-09-16T19:39:54.653Z,13.00
2017-09-16T19:42:24.520Z,12.90
2017-09-16T19:44:57.739Z,12.90
2017-09-16T19:47:27.044Z,12.90
2017-09-16T19:49:59.009Z,12.80
2017-09-16T19:52:27.471Z,12.90
2017-09-16T19:54:57.728Z,12.80
2017-09-16T19:57:31.188Z,12.80
2017-09-16T20:00:00.525Z,12.70
2017-09-16T20:02:28.786Z,12.70
2017-09-16T20:04:56.948Z,12.70
2017-09-16T20:07:25.129Z,12.60
2017-09-16T20:09:53.340Z,12.50
2017-09-16T20:12:21.565Z,12.50
2017-09-16T20:14:49.702Z,12.40
2017-09-16T20:17:18.796Z,12.40
2017-09-16T20:19:46.961Z,12.30
2017-09-16T20:22:15.220Z,12.30
2017-09-16T20:24:43.372Z,12.30
2017-09-16T20:27:11.524Z,12.20
2017-09-16T20:29:39.698Z,12.20
2017-09-16T20:32:07.868Z,12.20
2017-09-16T20:34:36.074Z,12.10
2017-09-16T20:37:04.238Z,12.10
2017-09-16T20:39:33.729Z,12.10
2017-09-16T20:42:02.124Z,12.10
2017-09-16T20:44:30.268Z,12.00
2017-09-16T20:46:58.469Z,12.00
2017-09-16T20:49:26.637Z,11.90
2017-09-16T20:51:54.941Z,11.80
2017-09-16T20:54:23.110Z,11.80
2017-09-16T20:56:51.376Z,11.70
2017-09-16T20:59:19.525Z,11.70
2017-09-16T21:01:47.698Z,11.70
2017-09-16T21:04:15.873Z,11.60
2017-09-16T21:06:44.349Z,11.60
2017-09-16T21:09:12.616Z,11.60
2017-09-16T21:11:40.760Z,11.60
2017-09-16T21:14:08.950Z,11.60
2017-09-16T21:16:37.870Z,11.60
2017-09-16T21:19:06.061Z,11.60
2017-09-16T21:21:34.221Z,11.50
2017-09-16T21:24:02.357Z,11.40
2017-09-16T21:26:31.587Z,11.40
2017-09-16T21:28:59.718Z,11.40
2017-09-16T21:31:29.073Z,11.40
2017-09-16T21:33:57.242Z,11.40
2017-09-16T21:36:25.435Z,11.40
2017-09-16T21:38:53.561Z,11.30
2017-09-16T21:41:21.866Z,11.30
2017-09-16T21:43:50.073Z,11.20
2017-09-16T21:46:18.225Z,11.20
2017-09-16T21:48:46.371Z,11.10
2017-09-16T21:51:14.529Z,11.10
2017-09-16T21:53:42.685Z,11.10
2017-09-16T21:56:10.877Z,11.10
2017-09-16T21:58:39.784Z,11.10
2017-09-16T22:01:08.083Z,11.00
2017-09-16T22:03:36.217Z,11.10
2017-09-16T22:06:05.138Z,11.10
2017-09-16T22:08:33.309Z,11.10
2017-09-16T22:11:01.442Z,11.10
2017-09-16T22:13:30.505Z,11.00
2017-09-16T22:15:58.661Z,11.00
2017-09-16T22:18:26.817Z,10.90
2017-09-16T22:20:55.269Z,10.90
2017-09-16T22:23:24.172Z,10.90
2017-09-16T22:25:52.340Z,10.80
2017-09-16T22:28:21.245Z,10.80
2017-09-16T22:30:49.450Z,10.80
2017-09-16T22:33:17.584Z,10.90
2017-09-16T22:35:45.740Z,10.80
2017-09-16T22:38:14.001Z,10.80
2017-09-16T22:40:42.237Z,10.80
2017-09-16T22:43:10.414Z,10.80
2017-09-16T22:45:38.567Z,10.70
2017-09-16T22:48:06.749Z,10.70
2017-09-16T22:50:34.892Z,10.80
2017-09-16T22:53:03.841Z,10.80
2017-09-16T22:55:32.014Z,10.80
2017-09-16T22:58:00.288Z,10.80
2017-09-16T23:00:28.413Z,10.80
2017-09-16T23:02:56.552Z,10.80
2017-09-16T23:05:24.757Z,10.80
2017-09-16T23:07:52.856Z,10.90
2017-09-16T23:10:21.012Z,10.90
2017-09-16T23:12:49.193Z,10.90
2017-09-16T23:15:17.360Z,10.90
2017-09-16T23:17:45.649Z,10.90
2017-09-16T23:20:13.776Z,10.90
2017-09-16T23:22:41.972Z,10.90
2017-09-16T23:25:10.869Z,10.90
2017-09-16T23:27:38.996Z,10.90
2017-09-16T23:30:07.265Z,10.90
2017-09-16T23:32:35.394Z,11.00
2017-09-16T23:35:03.556Z,10.90
2017-09-16T23:37:32.459Z,10.90
2017-09-16T23:40:00.621Z,10.90
2017-09-16T23:42:29.526Z,10.90
2017-09-16T23:44:57.813Z,10.90
2017-09-16T23:47:25.949Z,10.90
2017-09-16T23:49:54.846Z,10.80
2017-09-16T23:52:23.778Z,10.80
2017-09-16T23:54:51.932Z,10.80
2017-09-16T23:57:20.085Z,10.70
2017-09-16T23:59:49.001Z,10.60
